sensor_id;sensor_type;location;lat;lon;timestamp;pressure;altitude;pressure_sealevel;temperature
64394;BMP280;50712;49.506;10.400;2023-04-01T00:00:01;96537.72;;;12.37
64394;BMP280;50712;49.506;10.400;2023-04-01T00:00:31;96542.44;;;12.36
64394;BMP280;50712;49.506;10.400;2023-04-01T00:01:02;96539.69;;;12.36
64394;BMP280;50712;49.506;10.400;2023-04-01T00:01:33;96540.44;;;12.37
64394;BMP280;50712;49.506;10.400;2023-04-01T00:02:03;96534.25;;;12.36
64394;BMP280;50712;49.506;10.400;2023-04-01T00:02:34;96540.44;;;12.37
64394;BMP280;50712;49.506;10.400;2023-04-01T00:03:05;96535.75;;;12.37
64394;BMP280;50712;49.506;10.400;2023-04-01T00:03:35;96545.91;;;12.37
64394;BMP280;50712;49.506;10.400;2023-04-01T00:04:06;96545.16;;;12.36
64394;BMP280;50712;49.506;10.400;2023-04-01T00:04:36;96540.44;;;12.37
64394;BMP280;50712;49.506;10.400;2023-04-01T00:05:07;96538.97;;;12.36
64394;BMP280;50712;49.506;10.400;2023-04-01T00:05:37;96538.97;;;12.36
64394;BMP280;50712;49.506;10.400;2023-04-01T00:06:08;96530.78;;;12.36
64394;BMP280;50712;49.506;10.400;2023-04-01T00:06:41;96540.94;;;12.35
64394;BMP280;50712;49.506;10.400;2023-04-01T00:07:11;96538.22;;;12.35
64394;BMP280;50712;49.506;10.400;2023-04-01T00:07:42;96534.75;;;12.35
64394;BMP280;50712;49.506;10.400;2023-04-01T00:08:12;96540.94;;;12.35
64394;BMP280;50712;49.506;10.400;2023-04-01T00:08:44;96534.75;;;12.35
64394;BMP280;50712;49.506;10.400;2023-04-01T00:09:15;96530.03;;;12.35
64394;BMP280;50712;49.506;10.400;2023-04-01T00:09:45;96533.50;;;12.36
64394;BMP280;50712;49.506;10.400;2023-04-01T00:10:16;96536.97;;;12.36
64394;BMP280;50712;49.506;10.400;2023-04-01T00:10:46;96536.25;;;12.36
64394;BMP280;50712;49.506;10.400;2023-04-01T00:11:17;96541.72;;;12.36
64394;BMP280;50712;49.506;10.400;2023-04-01T00:11:48;96536.25;;;12.36
64394;BMP280;50712;49.506;10.400;2023-04-01T00:12:18;96538.22;;;12.35
64394;BMP280;50712;49.506;10.400;2023-04-01T00:12:49;96542.94;;;12.35
64394;BMP280;50712;49.506;10.400;2023-04-01T00:13:20;96540.19;;;12.35
64394;BMP280;50712;49.506;10.400;2023-04-01T00:13:51;96540.66;;;12.33
64394;BMP280;50712;49.506;10.400;2023-04-01T00:14:21;96535.22;;;12.33
64394;BMP280;50712;49.506;10.400;2023-04-01T00:14:51;96538.69;;;12.34
64394;BMP280;50712;49.506;10.400;2023-04-01T00:15:22;96539.44;;;12.34
64394;BMP280;50712;49.506;10.400;2023-04-01T00:15:53;96549.16;;;12.35
64394;BMP280;50712;49.506;10.400;2023-04-01T00:16:25;96535.22;;;12.33
64394;BMP280;50712;49.506;10.400;2023-04-01T00:16:55;96539.94;;;12.33
64394;BMP280;50712;49.506;10.400;2023-04-01T00:17:25;96541.44;;;12.34
64394;BMP280;50712;49.506;10.400;2023-04-01T00:17:56;96543.41;;;12.33
64394;BMP280;50712;49.506;10.400;2023-04-01T00:18:27;96535.97;;;12.34
64394;BMP280;50712;49.506;10.400;2023-04-01T00:18:57;96535.97;;;12.34
64394;BMP280;50712;49.506;10.400;2023-04-01T00:19:28;96537.94;;;12.33
64394;BMP280;50712;49.506;10.400;2023-04-01T00:19:58;96537.94;;;12.33
64394;BMP280;50712;49.506;10.400;2023-04-01T00:20:29;96542.94;;;12.35
64394;BMP280;50712;49.506;10.400;2023-04-01T00:20:59;96533.22;;;12.34
64394;BMP280;50712;49.506;10.400;2023-04-01T00:21:30;96540.66;;;12.33
64394;BMP280;50712;49.506;10.400;2023-04-01T00:22:00;96538.69;;;12.34
64394;BMP280;50712;49.506;10.400;2023-04-01T00:22:31;96539.44;;;12.34
64394;BMP280;50712;49.506;10.400;2023-04-01T00:23:01;96540.19;;;12.35
64394;BMP280;50712;49.506;10.400;2023-04-01T00:23:32;96536.25;;;12.36
64394;BMP280;50712;49.506;10.400;2023-04-01T00:24:03;96541.72;;;12.36
64394;BMP280;50712;49.506;10.400;2023-04-01T00:24:33;96538.97;;;12.36
64394;BMP280;50712;49.506;10.400;2023-04-01T00:25:04;96541.72;;;12.36
64394;BMP280;50712;49.506;10.400;2023-04-01T00:25:35;96547.88;;;12.36
64394;BMP280;50712;49.506;10.400;2023-04-01T00:26:05;96544.44;;;12.36
64394;BMP280;50712;49.506;10.400;2023-04-01T00:26:35;96545.91;;;12.37
64394;BMP280;50712;49.506;10.400;2023-04-01T00:27:05;96540.94;;;12.35
64394;BMP280;50712;49.506;10.400;2023-04-01T00:27:37;96545.16;;;12.36
64394;BMP280;50712;49.506;10.400;2023-04-01T00:28:08;96537.72;;;12.37
64394;BMP280;50712;49.506;10.400;2023-04-01T00:28:38;96541.72;;;12.36
64394;BMP280;50712;49.506;10.400;2023-04-01T00:29:08;96545.91;;;12.37
64394;BMP280;50712;49.506;10.400;2023-04-01T00:29:41;96541.72;;;12.36
64394;BMP280;50712;49.506;10.400;2023-04-01T00:30:13;96545.16;;;12.36
64394;BMP280;50712;49.506;10.400;2023-04-01T00:30:43;96538.22;;;12.35
64394;BMP280;50712;49.506;10.400;2023-04-01T00:31:14;96543.94;;;12.37
64394;BMP280;50712;49.506;10.400;2023-04-01T00:31:44;96543.19;;;12.37
64394;BMP280;50712;49.506;10.400;2023-04-01T00:32:15;96545.91;;;12.37
64394;BMP280;50712;49.506;10.400;2023-04-01T00:32:45;96542.44;;;12.36
64394;BMP280;50712;49.506;10.400;2023-04-01T00:33:15;96541.72;;;12.36
64394;BMP280;50712;49.506;10.400;2023-04-01T00:33:46;96544.44;;;12.36
64394;BMP280;50712;49.506;10.400;2023-04-01T00:34:17;96544.44;;;12.36
64394;BMP280;50712;49.506;10.400;2023-04-01T00:34:49;96543.69;;;12.35
64394;BMP280;50712;49.506;10.400;2023-04-01T00:35:21;96550.63;;;12.36
64394;BMP280;50712;49.506;10.400;2023-04-01T00:35:52;96538.22;;;12.35
64394;BMP280;50712;49.506;10.400;2023-04-01T00:36:22;96540.19;;;12.35
64394;BMP280;50712;49.506;10.400;2023-04-01T00:36:53;96538.47;;;12.32
64394;BMP280;50712;49.506;10.400;2023-04-01T00:37:24;96539.69;;;12.36
64394;BMP280;50712;49.506;10.400;2023-04-01T00:37:54;96538.22;;;12.35
64394;BMP280;50712;49.506;10.400;2023-04-01T00:38:25;96543.69;;;12.35
64394;BMP280;50712;49.506;10.400;2023-04-01T00:38:55;96536.25;;;12.36
64394;BMP280;50712;49.506;10.400;2023-04-01T00:39:29;96540.66;;;12.33
64394;BMP280;50712;49.506;10.400;2023-04-01T00:40:00;96539.44;;;12.34
64394;BMP280;50712;49.506;10.400;2023-04-01T00:40:31;96542.19;;;12.34
64394;BMP280;50712;49.506;10.400;2023-04-01T00:41:04;96541.44;;;12.34
64394;BMP280;50712;49.506;10.400;2023-04-01T00:41:35;96539.44;;;12.34
64394;BMP280;50712;49.506;10.400;2023-04-01T00:42:06;96542.69;;;12.33
64394;BMP280;50712;49.506;10.400;2023-04-01T00:42:36;96539.94;;;12.33
64394;BMP280;50712;49.506;10.400;2023-04-01T00:43:14;96535.22;;;12.33
64394;BMP280;50712;49.506;10.400;2023-04-01T00:43:50;96537.94;;;12.33
64394;BMP280;50712;49.506;10.400;2023-04-01T00:44:22;96532.47;;;12.33
64394;BMP280;50712;49.506;10.400;2023-04-01T00:44:54;96537.22;;;12.33
64394;BMP280;50712;49.506;10.400;2023-04-01T00:45:27;96535.22;;;12.33
64394;BMP280;50712;49.506;10.400;2023-04-01T00:46:00;96535.22;;;12.33
64394;BMP280;50712;49.506;10.400;2023-04-01T00:46:30;96535.97;;;12.34
64394;BMP280;50712;49.506;10.400;2023-04-01T00:47:01;96535.22;;;12.33
64394;BMP280;50712;49.506;10.400;2023-04-01T00:47:31;96541.44;;;12.34
64394;BMP280;50712;49.506;10.400;2023-04-01T00:48:04;96537.47;;;12.35
64394;BMP280;50712;49.506;10.400;2023-04-01T00:48:36;96538.69;;;12.34
64394;BMP280;50712;49.506;10.400;2023-04-01T00:49:09;96538.69;;;12.34
64394;BMP280;50712;49.506;10.400;2023-04-01T00:49:40;96533.22;;;12.34
64394;BMP280;50712;49.506;10.400;2023-04-01T00:50:14;96544.16;;;12.34
64394;BMP280;50712;49.506;10.400;2023-04-01T00:50:46;96536.72;;;12.34
64394;BMP280;50712;49.506;10.400;2023-04-01T00:51:22;96541.44;;;12.34
64394;BMP280;50712;49.506;10.400;2023-04-01T00:51:55;96534.00;;;12.34
64394;BMP280;50712;49.506;10.400;2023-04-01T00:52:29;96530.50;;;12.34
64394;BMP280;50712;49.506;10.400;2023-04-01T00:53:00;96541.44;;;12.34
64394;BMP280;50712;49.506;10.400;2023-04-01T00:53:32;96536.72;;;12.34
64394;BMP280;50712;49.506;10.400;2023-04-01T00:54:06;96538.69;;;12.34
64394;BMP280;50712;49.506;10.400;2023-04-01T00:54:40;96540.19;;;12.35
64394;BMP280;50712;49.506;10.400;2023-04-01T00:55:14;96534.00;;;12.34
64394;BMP280;50712;49.506;10.400;2023-04-01T00:55:50;96534.75;;;12.35
64394;BMP280;50712;49.506;10.400;2023-04-01T00:56:26;96530.78;;;12.36
64394;BMP280;50712;49.506;10.400;2023-04-01T00:57:01;96539.44;;;12.34
64394;BMP280;50712;49.506;10.400;2023-04-01T00:57:37;96534.75;;;12.35
64394;BMP280;50712;49.506;10.400;2023-04-01T00:58:09;96542.19;;;12.34
64394;BMP280;50712;49.506;10.400;2023-04-01T00:58:47;96536.72;;;12.34
64394;BMP280;50712;49.506;10.400;2023-04-01T00:59:26;96538.69;;;12.34
64394;BMP280;50712;49.506;10.400;2023-04-01T00:59:59;96535.22;;;12.33
64394;BMP280;50712;49.506;10.400;2023-04-01T01:00:30;96533.22;;;12.34
64394;BMP280;50712;49.506;10.400;2023-04-01T01:01:01;96538.69;;;12.34
64394;BMP280;50712;49.506;10.400;2023-04-01T01:01:31;96538.69;;;12.34
64394;BMP280;50712;49.506;10.400;2023-04-01T01:02:04;96548.13;;;12.33
64394;BMP280;50712;49.506;10.400;2023-04-01T01:02:37;96548.13;;;12.33
64394;BMP280;50712;49.506;10.400;2023-04-01T01:03:08;96539.94;;;12.33
64394;BMP280;50712;49.506;10.400;2023-04-01T01:03:38;96530.28;;;12.32
64394;BMP280;50712;49.506;10.400;2023-04-01T01:04:20;96537.72;;;12.31
64394;BMP280;50712;49.506;10.400;2023-04-01T01:04:52;96533.47;;;12.30
64394;BMP280;50712;49.506;10.400;2023-04-01T01:05:26;96538.94;;;12.30
64394;BMP280;50712;49.506;10.400;2023-04-01T01:07:55;96532.00;;;12.29
64394;BMP280;50712;49.506;10.400;2023-04-01T01:10:09;96533.97;;;12.29
64394;BMP280;50712;49.506;10.400;2023-04-01T01:10:40;96542.94;;;12.29
64394;BMP280;50712;49.506;10.400;2023-04-01T01:11:18;96534.72;;;12.29
64394;BMP280;50712;49.506;10.400;2023-04-01T01:12:48;96542.94;;;12.29
64394;BMP280;50712;49.506;10.400;2023-04-01T01:13:36;96532.72;;;12.30
64394;BMP280;50712;49.506;10.400;2023-04-01T01:14:14;96537.47;;;12.29
64394;BMP280;50712;49.506;10.400;2023-04-01T01:15:06;96543.66;;;12.30
64394;BMP280;50712;49.506;10.400;2023-04-01T01:16:29;96532.00;;;12.29
64394;BMP280;50712;49.506;10.400;2023-04-01T01:17:06;96541.66;;;12.30
64394;BMP280;50712;49.506;10.400;2023-04-01T01:17:59;96532.00;;;12.29
64394;BMP280;50712;49.506;10.400;2023-04-01T01:18:38;96530.00;;;12.30
64394;BMP280;50712;49.506;10.400;2023-04-01T01:19:55;96532.72;;;12.30
64394;BMP280;50712;49.506;10.400;2023-04-01T01:24:41;96529.28;;;12.29
64394;BMP280;50712;49.506;10.400;2023-04-01T01:26:22;96533.69;;;12.27
64394;BMP280;50712;49.506;10.400;2023-04-01T01:27:22;96538.44;;;12.26
64394;BMP280;50712;49.506;10.400;2023-04-01T01:28:03;96531.47;;;12.25
64394;BMP280;50712;49.506;10.400;2023-04-01T01:36:26;96525.78;;;12.23
64394;BMP280;50712;49.506;10.400;2023-04-01T01:37:03;96520.31;;;12.23
64394;BMP280;50712;49.506;10.400;2023-04-01T01:37:41;96523.06;;;12.23
64394;BMP280;50712;49.506;10.400;2023-04-01T01:38:15;96525.78;;;12.23
64394;BMP280;50712;49.506;10.400;2023-04-01T01:38:54;96525.78;;;12.23
64394;BMP280;50712;49.506;10.400;2023-04-01T01:39:26;96525.78;;;12.23
64394;BMP280;50712;49.506;10.400;2023-04-01T01:40:02;96518.81;;;12.22
64394;BMP280;50712;49.506;10.400;2023-04-01T01:40:37;96521.03;;;12.24
64394;BMP280;50712;49.506;10.400;2023-04-01T01:41:12;96515.59;;;12.24
64394;BMP280;50712;49.506;10.400;2023-04-01T01:41:47;96520.31;;;12.23
64394;BMP280;50712;49.506;10.400;2023-04-01T01:42:19;96514.88;;;12.23
64394;BMP280;50712;49.506;10.400;2023-04-01T01:42:55;96509.41;;;12.23
64394;BMP280;50712;49.506;10.400;2023-04-01T01:43:36;96512.13;;;12.23
64394;BMP280;50712;49.506;10.400;2023-04-01T01:44:13;96520.31;;;12.23
64394;BMP280;50712;49.506;10.400;2023-04-01T01:44:46;96505.16;;;12.22
64394;BMP280;50712;49.506;10.400;2023-04-01T01:45:19;96516.09;;;12.22
64394;BMP280;50712;49.506;10.400;2023-04-01T01:45:54;96516.09;;;12.22
64394;BMP280;50712;49.506;10.400;2023-04-01T01:46:28;96518.81;;;12.22
64394;BMP280;50712;49.506;10.400;2023-04-01T01:47:00;96519.56;;;12.23
64394;BMP280;50712;49.506;10.400;2023-04-01T01:47:31;96513.34;;;12.22
64394;BMP280;50712;49.506;10.400;2023-04-01T01:48:04;96513.34;;;12.22
64394;BMP280;50712;49.506;10.400;2023-04-01T01:48:36;96511.38;;;12.23
64394;BMP280;50712;49.506;10.400;2023-04-01T01:49:07;96514.88;;;12.23
64394;BMP280;50712;49.506;10.400;2023-04-01T01:49:40;96505.91;;;12.23
64394;BMP280;50712;49.506;10.400;2023-04-01T01:50:13;96512.13;;;12.23
64394;BMP280;50712;49.506;10.400;2023-04-01T01:50:45;96505.91;;;12.23
64394;BMP280;50712;49.506;10.400;2023-04-01T01:51:19;96519.56;;;12.23
64394;BMP280;50712;49.506;10.400;2023-04-01T01:51:51;96513.34;;;12.22
64394;BMP280;50712;49.506;10.400;2023-04-01T01:52:23;96510.63;;;12.22
64394;BMP280;50712;49.506;10.400;2023-04-01T01:53:27;96509.88;;;12.22
64394;BMP280;50712;49.506;10.400;2023-04-01T01:53:50;96520.03;;;12.21
64394;BMP280;50712;49.506;10.400;2023-04-01T01:54:23;96520.03;;;12.21
64394;BMP280;50712;49.506;10.400;2023-04-01T01:54:54;96509.13;;;12.21
64394;BMP280;50712;49.506;10.400;2023-04-01T01:55:35;96515.81;;;12.20
64394;BMP280;50712;49.506;10.400;2023-04-01T01:56:09;96511.09;;;12.21
64394;BMP280;50712;49.506;10.400;2023-04-01T01:56:45;96513.06;;;12.20
64394;BMP280;50712;49.506;10.400;2023-04-01T01:57:21;96513.06;;;12.20
64394;BMP280;50712;49.506;10.400;2023-04-01T01:57:58;96510.34;;;12.20
64394;BMP280;50712;49.506;10.400;2023-04-01T01:58:35;96513.06;;;12.20
64394;BMP280;50712;49.506;10.400;2023-04-01T01:59:15;96513.06;;;12.20
64394;BMP280;50712;49.506;10.400;2023-04-01T01:59:51;96506.88;;;12.20
64394;BMP280;50712;49.506;10.400;2023-04-01T02:00:30;96517.81;;;12.20
64394;BMP280;50712;49.506;10.400;2023-04-01T02:01:04;96504.88;;;12.20
64394;BMP280;50712;49.506;10.400;2023-04-01T02:01:39;96515.06;;;12.20
64394;BMP280;50712;49.506;10.400;2023-04-01T02:02:15;96520.53;;;12.20
64394;BMP280;50712;49.506;10.400;2023-04-01T02:02:47;96523.25;;;12.20
64394;BMP280;50712;49.506;10.400;2023-04-01T02:03:19;96508.88;;;12.19
64394;BMP280;50712;49.506;10.400;2023-04-01T02:03:52;96510.84;;;12.19
64394;BMP280;50712;49.506;10.400;2023-04-01T02:04:24;96508.13;;;12.19
64394;BMP280;50712;49.506;10.400;2023-04-01T02:04:55;96514.81;;;12.18
64394;BMP280;50712;49.506;10.400;2023-04-01T02:05:26;96512.81;;;12.18
64394;BMP280;50712;49.506;10.400;2023-04-01T02:06:06;96501.91;;;12.18
64394;BMP280;50712;49.506;10.400;2023-04-01T02:06:43;96521.00;;;12.18
64394;BMP280;50712;49.506;10.400;2023-04-01T02:07:19;96511.34;;;12.17
64394;BMP280;50712;49.506;10.400;2023-04-01T02:08:16;96516.81;;;12.17
64394;BMP280;50712;49.506;10.400;2023-04-01T02:08:49;96507.13;;;12.16
64394;BMP280;50712;49.506;10.400;2023-04-01T02:09:21;96511.09;;;12.15
64394;BMP280;50712;49.506;10.400;2023-04-01T02:09:52;96513.81;;;12.15
64394;BMP280;50712;49.506;10.400;2023-04-01T02:10:24;96515.78;;;12.15
64394;BMP280;50712;49.506;10.400;2023-04-01T02:11:03;96511.84;;;12.16
64394;BMP280;50712;49.506;10.400;2023-04-01T02:11:43;96509.13;;;12.16
64394;BMP280;50712;49.506;10.400;2023-04-01T02:12:18;96507.59;;;12.15
64394;BMP280;50712;49.506;10.400;2023-04-01T02:12:51;96509.59;;;12.14
64394;BMP280;50712;49.506;10.400;2023-04-01T02:13:34;96523.97;;;12.15
64394;BMP280;50712;49.506;10.400;2023-04-01T02:14:19;96513.06;;;12.15
64394;BMP280;50712;49.506;10.400;2023-04-01T02:15:30;96512.59;;;12.16
64394;BMP280;50712;49.506;10.400;2023-04-01T02:16:18;96509.13;;;12.16
64394;BMP280;50712;49.506;10.400;2023-04-01T02:16:55;96509.38;;;12.18
64394;BMP280;50712;49.506;10.400;2023-04-01T02:17:27;96514.06;;;12.17
64394;BMP280;50712;49.506;10.400;2023-04-01T02:18:00;96516.06;;;12.17
64394;BMP280;50712;49.506;10.400;2023-04-01T02:18:32;96511.34;;;12.17
64394;BMP280;50712;49.506;10.400;2023-04-01T02:19:05;96518.81;;;12.17
64394;BMP280;50712;49.506;10.400;2023-04-01T02:19:41;96513.34;;;12.17
64394;BMP280;50712;49.506;10.400;2023-04-01T02:20:19;96516.81;;;12.17
64394;BMP280;50712;49.506;10.400;2023-04-01T02:20:52;96515.31;;;12.16
64394;BMP280;50712;49.506;10.400;2023-04-01T02:21:24;96512.59;;;12.16
64394;BMP280;50712;49.506;10.400;2023-04-01T02:21:59;96506.38;;;12.16
64394;BMP280;50712;49.506;10.400;2023-04-01T02:22:36;96513.81;;;12.15
64394;BMP280;50712;49.506;10.400;2023-04-01T02:23:12;96515.31;;;12.16
64394;BMP280;50712;49.506;10.400;2023-04-01T02:23:43;96511.09;;;12.15
64394;BMP280;50712;49.506;10.400;2023-04-01T02:24:15;96511.34;;;12.17
64394;BMP280;50712;49.506;10.400;2023-04-01T02:24:46;96507.13;;;12.16
64394;BMP280;50712;49.506;10.400;2023-04-01T02:25:23;96517.31;;;12.16
64394;BMP280;50712;49.506;10.400;2023-04-01T02:25:56;96520.78;;;12.16
64394;BMP280;50712;49.506;10.400;2023-04-01T02:26:27;96518.06;;;12.16
64394;BMP280;50712;49.506;10.400;2023-04-01T02:26:58;96509.59;;;12.14
64394;BMP280;50712;49.506;10.400;2023-04-01T02:27:29;96514.56;;;12.16
64394;BMP280;50712;49.506;10.400;2023-04-01T02:28:01;96513.81;;;12.15
64394;BMP280;50712;49.506;10.400;2023-04-01T02:28:34;96506.38;;;12.16
64394;BMP280;50712;49.506;10.400;2023-04-01T02:29:08;96509.88;;;12.16
64394;BMP280;50712;49.506;10.400;2023-04-01T02:29:42;96511.84;;;12.16
64394;BMP280;50712;49.506;10.400;2023-04-01T02:30:13;96516.56;;;12.15
64394;BMP280;50712;49.506;10.400;2023-04-01T02:30:45;96511.09;;;12.15
64394;BMP280;50712;49.506;10.400;2023-04-01T02:31:17;96511.09;;;12.15
64394;BMP280;50712;49.506;10.400;2023-04-01T02:31:49;96517.31;;;12.16
64394;BMP280;50712;49.506;10.400;2023-04-01T02:32:20;96512.59;;;12.16
64394;BMP280;50712;49.506;10.400;2023-04-01T02:32:51;96509.13;;;12.16
64394;BMP280;50712;49.506;10.400;2023-04-01T02:33:22;96518.81;;;12.17
64394;BMP280;50712;49.506;10.400;2023-04-01T02:33:54;96513.81;;;12.15
64394;BMP280;50712;49.506;10.400;2023-04-01T02:34:24;96514.56;;;12.16
64394;BMP280;50712;49.506;10.400;2023-04-01T02:34:56;96509.13;;;12.16
64394;BMP280;50712;49.506;10.400;2023-04-01T02:35:27;96511.09;;;12.15
64394;BMP280;50712;49.506;10.400;2023-04-01T02:35:57;96509.59;;;12.14
64394;BMP280;50712;49.506;10.400;2023-04-01T02:36:28;96515.78;;;12.15
64394;BMP280;50712;49.506;10.400;2023-04-01T02:36:59;96513.06;;;12.15
64394;BMP280;50712;49.506;10.400;2023-04-01T02:37:30;96515.78;;;12.15
64394;BMP280;50712;49.506;10.400;2023-04-01T02:38:00;96510.34;;;12.15
64394;BMP280;50712;49.506;10.400;2023-04-01T02:38:31;96518.53;;;12.15
64394;BMP280;50712;49.506;10.400;2023-04-01T02:39:05;96515.78;;;12.15
64394;BMP280;50712;49.506;10.400;2023-04-01T02:39:36;96512.31;;;12.14
64394;BMP280;50712;49.506;10.400;2023-04-01T02:40:08;96519.03;;;12.13
64394;BMP280;50712;49.506;10.400;2023-04-01T02:40:42;96512.81;;;12.13
64394;BMP280;50712;49.506;10.400;2023-04-01T02:41:14;96522.50;;;12.14
64394;BMP280;50712;49.506;10.400;2023-04-01T02:41:45;96516.28;;;12.13
64394;BMP280;50712;49.506;10.400;2023-04-01T02:42:16;96515.03;;;12.14
64394;BMP280;50712;49.506;10.400;2023-04-01T02:42:47;96508.84;;;12.14
64394;BMP280;50712;49.506;10.400;2023-04-01T02:43:17;96506.84;;;12.14
64394;BMP280;50712;49.506;10.400;2023-04-01T02:43:49;96508.84;;;12.14
64394;BMP280;50712;49.506;10.400;2023-04-01T02:44:20;96511.59;;;12.14
64394;BMP280;50712;49.506;10.400;2023-04-01T02:44:51;96512.31;;;12.14
64394;BMP280;50712;49.506;10.400;2023-04-01T02:45:21;96513.81;;;12.15
64394;BMP280;50712;49.506;10.400;2023-04-01T02:45:52;96512.31;;;12.14
64394;BMP280;50712;49.506;10.400;2023-04-01T02:46:22;96513.06;;;12.15
64394;BMP280;50712;49.506;10.400;2023-04-01T02:46:53;96514.56;;;12.16
64394;BMP280;50712;49.506;10.400;2023-04-01T02:47:23;96511.09;;;12.15
64394;BMP280;50712;49.506;10.400;2023-04-01T02:47:53;96511.09;;;12.15
64394;BMP280;50712;49.506;10.400;2023-04-01T02:48:24;96504.88;;;12.15
64394;BMP280;50712;49.506;10.400;2023-04-01T02:48:54;96506.84;;;12.14
64394;BMP280;50712;49.506;10.400;2023-04-01T02:49:24;96515.78;;;12.15
64394;BMP280;50712;49.506;10.400;2023-04-01T02:49:55;96504.88;;;12.15
64394;BMP280;50712;49.506;10.400;2023-04-01T02:50:28;96505.63;;;12.15
64394;BMP280;50712;49.506;10.400;2023-04-01T02:50:58;96498.19;;;12.16
64394;BMP280;50712;49.506;10.400;2023-04-01T02:51:29;96502.16;;;12.15
64394;BMP280;50712;49.506;10.400;2023-04-01T02:51:59;96504.88;;;12.15
64394;BMP280;50712;49.506;10.400;2023-04-01T02:52:30;96509.59;;;12.14
64394;BMP280;50712;49.506;10.400;2023-04-01T02:53:04;96504.13;;;12.14
64394;BMP280;50712;49.506;10.400;2023-04-01T02:53:36;96500.66;;;12.14
64394;BMP280;50712;49.506;10.400;2023-04-01T02:54:06;96506.13;;;12.14
64394;BMP280;50712;49.506;10.400;2023-04-01T02:54:36;96506.13;;;12.14
64394;BMP280;50712;49.506;10.400;2023-04-01T02:55:07;96508.09;;;12.13
64394;BMP280;50712;49.506;10.400;2023-04-01T02:55:38;96513.06;;;12.15
64394;BMP280;50712;49.506;10.400;2023-04-01T02:56:08;96508.84;;;12.14
64394;BMP280;50712;49.506;10.400;2023-04-01T02:56:39;96508.84;;;12.14
64394;BMP280;50712;49.506;10.400;2023-04-01T02:57:09;96510.34;;;12.15
64394;BMP280;50712;49.506;10.400;2023-04-01T02:57:39;96509.59;;;12.14
64394;BMP280;50712;49.506;10.400;2023-04-01T02:58:10;96505.63;;;12.15
64394;BMP280;50712;49.506;10.400;2023-04-01T02:58:40;96514.31;;;12.14
64394;BMP280;50712;49.506;10.400;2023-04-01T02:59:11;96510.34;;;12.15
64394;BMP280;50712;49.506;10.400;2023-04-01T02:59:42;96510.34;;;12.15
64394;BMP280;50712;49.506;10.400;2023-04-01T03:00:12;96512.31;;;12.14
64394;BMP280;50712;49.506;10.400;2023-04-01T03:00:43;96514.31;;;12.14
64394;BMP280;50712;49.506;10.400;2023-04-01T03:01:14;96511.59;;;12.14
64394;BMP280;50712;49.506;10.400;2023-04-01T03:01:44;96512.81;;;12.13
64394;BMP280;50712;49.506;10.400;2023-04-01T03:02:15;96514.78;;;12.12
64394;BMP280;50712;49.506;10.400;2023-04-01T03:02:46;96511.31;;;12.12
64394;BMP280;50712;49.506;10.400;2023-04-01T03:03:16;96512.06;;;12.12
64394;BMP280;50712;49.506;10.400;2023-04-01T03:03:47;96519.50;;;12.12
64394;BMP280;50712;49.506;10.400;2023-04-01T03:04:17;96520.75;;;12.11
64394;BMP280;50712;49.506;10.400;2023-04-01T03:04:48;96518.78;;;12.11
64394;BMP280;50712;49.506;10.400;2023-04-01T03:05:18;96522.75;;;12.10
64394;BMP280;50712;49.506;10.400;2023-04-01T03:05:49;96520.03;;;12.10
64394;BMP280;50712;49.506;10.400;2023-04-01T03:06:20;96526.22;;;12.11
64394;BMP280;50712;49.506;10.400;2023-04-01T03:06:50;96517.28;;;12.10
64394;BMP280;50712;49.506;10.400;2023-04-01T03:07:21;96517.28;;;12.10
64394;BMP280;50712;49.506;10.400;2023-04-01T03:07:52;96520.75;;;12.11
64394;BMP280;50712;49.506;10.400;2023-04-01T03:08:23;96512.56;;;12.11
64394;BMP280;50712;49.506;10.400;2023-04-01T03:08:53;96517.28;;;12.10
64394;BMP280;50712;49.506;10.400;2023-04-01T03:09:23;96518.03;;;12.11
64394;BMP280;50712;49.506;10.400;2023-04-01T03:09:54;96523.47;;;12.11
64394;BMP280;50712;49.506;10.400;2023-04-01T03:10:24;96520.03;;;12.10
64394;BMP280;50712;49.506;10.400;2023-04-01T03:10:55;96519.28;;;12.10
64394;BMP280;50712;49.506;10.400;2023-04-01T03:11:25;96518.03;;;12.11
64394;BMP280;50712;49.506;10.400;2023-04-01T03:11:56;96514.56;;;12.10
64394;BMP280;50712;49.506;10.400;2023-04-01T03:12:27;96519.28;;;12.10
64394;BMP280;50712;49.506;10.400;2023-04-01T03:12:57;96521.25;;;12.09
64394;BMP280;50712;49.506;10.400;2023-04-01T03:13:28;96519.28;;;12.10
64394;BMP280;50712;49.506;10.400;2023-04-01T03:13:58;96526.22;;;12.11
64394;BMP280;50712;49.506;10.400;2023-04-01T03:14:29;96522.75;;;12.10
64394;BMP280;50712;49.506;10.400;2023-04-01T03:14:59;96528.22;;;12.10
64394;BMP280;50712;49.506;10.400;2023-04-01T03:15:30;96520.03;;;12.10
64394;BMP280;50712;49.506;10.400;2023-04-01T03:16:00;96523.47;;;12.11
64394;BMP280;50712;49.506;10.400;2023-04-01T03:16:31;96522.75;;;12.10
64394;BMP280;50712;49.506;10.400;2023-04-01T03:17:01;96522.00;;;12.10
64394;BMP280;50712;49.506;10.400;2023-04-01T03:17:31;96523.47;;;12.11
64394;BMP280;50712;49.506;10.400;2023-04-01T03:18:02;96522.75;;;12.10
64394;BMP280;50712;49.506;10.400;2023-04-01T03:18:33;96522.75;;;12.10
64394;BMP280;50712;49.506;10.400;2023-04-01T03:19:03;96520.03;;;12.10
64394;BMP280;50712;49.506;10.400;2023-04-01T03:19:34;96526.22;;;12.11
64394;BMP280;50712;49.506;10.400;2023-04-01T03:20:09;96520.03;;;12.10
64394;BMP280;50712;49.506;10.400;2023-04-01T03:20:41;96519.28;;;12.10
64394;BMP280;50712;49.506;10.400;2023-04-01T03:21:12;96518.03;;;12.11
64394;BMP280;50712;49.506;10.400;2023-04-01T03:21:43;96528.22;;;12.10
64394;BMP280;50712;49.506;10.400;2023-04-01T03:22:13;96517.28;;;12.10
64394;BMP280;50712;49.506;10.400;2023-04-01T03:22:44;96522.75;;;12.10
64394;BMP280;50712;49.506;10.400;2023-04-01T03:23:15;96522.00;;;12.10
64394;BMP280;50712;49.506;10.400;2023-04-01T03:23:51;96522.00;;;12.10
64394;BMP280;50712;49.506;10.400;2023-04-01T03:24:21;96517.28;;;12.10
64394;BMP280;50712;49.506;10.400;2023-04-01T03:24:52;96523.22;;;12.09
64394;BMP280;50712;49.506;10.400;2023-04-01T03:25:22;96519.28;;;12.10